Time,TemperatureF,DewpointF,PressureIn,WindDirection,WindDirectionDegrees,WindSpeedMPH,WindSpeedGustMPH,Humidity,HourlyPrecipIn,Conditions,Clouds,dailyrainin,SolarRadiationWatts/m^2,SoftwareType,DateUTC
2013-01-26 00:00:00,12.7,8.8,30.10,ENE,67,0.0,0.0,84,0.00,,,0.00,0.0,meteohub,2013-01-26 05:00:00,
2013-01-26 00:02:00,12.7,8.8,30.10,ENE,67,0.0,0.0,84,0.00,,,0.00,0.0,meteohub,2013-01-26 05:02:00,
2013-01-26 00:03:00,12.7,8.8,30.10,ENE,67,0.0,0.0,84,0.00,,,0.00,0.0,meteohub,2013-01-26 05:03:00,
2013-01-26 00:08:00,12.6,8.6,30.10,ENE,67,0.0,0.0,84,0.00,,,0.00,0.0,meteohub,2013-01-26 05:08:00,
2013-01-26 00:14:00,12.4,8.4,30.10,ENE,67,0.0,0.0,84,0.00,,,0.00,0.0,meteohub,2013-01-26 05:14:00,
2013-01-26 00:19:00,12.0,8.1,30.10,ENE,67,0.0,0.0,84,0.00,,,0.00,0.0,meteohub,2013-01-26 05:19:00,
2013-01-26 00:24:00,11.8,7.9,30.10,ENE,67,0.0,0.0,84,0.00,,,0.00,0.0,meteohub,2013-01-26 05:24:00,
2013-01-26 00:30:00,11.7,7.5,30.10,ENE,67,0.0,0.0,83,0.00,,,0.00,0.0,meteohub,2013-01-26 05:30:00,
2013-01-26 00:35:00,11.5,7.3,30.10,ENE,67,0.0,0.0,83,0.00,,,0.00,0.0,meteohub,2013-01-26 05:35:00,
2013-01-26 00:40:00,11.1,7.0,30.10,ENE,67,0.0,0.0,83,0.00,,,0.00,0.0,meteohub,2013-01-26 05:40:00,
2013-01-26 00:46:00,10.9,6.8,30.10,ENE,67,0.0,0.0,83,0.00,,,0.00,0.0,meteohub,2013-01-26 05:46:00,
2013-01-26 00:51:00,10.8,6.6,30.10,ENE,67,0.0,0.0,83,0.00,,,0.00,0.0,meteohub,2013-01-26 05:51:00,
2013-01-26 00:56:00,10.6,6.4,30.10,ENE,67,0.0,0.0,83,0.00,,,0.00,0.0,meteohub,2013-01-26 05:56:00,
2013-01-26 01:02:00,10.4,6.3,30.10,ENE,67,0.0,0.0,83,0.00,,,0.00,0.0,meteohub,2013-01-26 06:02:00,
2013-01-26 01:07:00,10.2,6.1,30.10,ENE,67,0.0,0.0,83,0.00,,,0.00,0.0,meteohub,2013-01-26 06:07:00,
2013-01-26 01:12:00,10.0,5.9,30.10,ENE,67,0.0,0.0,83,0.00,,,0.00,0.0,meteohub,2013-01-26 06:12:00,
2013-01-26 01:17:00,10.0,5.9,30.10,ENE,67,0.0,0.0,83,0.00,,,0.00,0.0,meteohub,2013-01-26 06:17:00,
2013-01-26 01:22:00,9.9,5.7,30.10,ENE,67,0.0,0.0,83,0.00,,,0.00,0.0,meteohub,2013-01-26 06:22:00,
2013-01-26 01:27:00,9.9,6.1,30.09,ENE,67,0.0,0.0,84,0.00,,,0.00,0.0,meteohub,2013-01-26 06:27:00,
2013-01-26 01:32:00,9.9,6.1,30.09,ENE,67,0.0,0.0,84,0.00,,,0.00,0.0,meteohub,2013-01-26 06:32:00,
2013-01-26 01:37:00,9.7,5.9,30.09,ENE,67,0.0,0.0,84,0.00,,,0.00,0.0,meteohub,2013-01-26 06:37:00,
2013-01-26 01:42:00,9.7,5.9,30.09,ENE,67,0.0,0.0,84,0.00,,,0.00,0.0,meteohub,2013-01-26 06:42:00,
2013-01-26 01:47:00,9.7,5.9,30.09,ENE,67,0.0,0.0,84,0.00,,,0.00,0.0,meteohub,2013-01-26 06:47:00,
2013-01-26 01:52:00,9.7,5.9,30.09,ENE,67,0.0,0.0,84,0.00,,,0.00,0.0,meteohub,2013-01-26 06:52:00,
2013-01-26 01:57:00,9.7,6.1,30.09,ENE,67,0.0,0.0,85,0.00,,,0.00,0.0,meteohub,2013-01-26 06:57:00,
2013-01-26 02:02:00,9.7,6.1,30.09,ENE,67,0.0,0.0,85,0.00,,,0.00,0.0,meteohub,2013-01-26 07:02:00,
2013-01-26 02:07:00,9.7,6.1,30.09,ENE,67,0.0,0.0,85,0.00,,,0.00,0.0,meteohub,2013-01-26 07:07:00,
2013-01-26 02:12:00,9.7,6.1,30.09,ENE,67,0.0,0.0,85,0.00,,,0.00,0.0,meteohub,2013-01-26 07:12:00,
2013-01-26 02:17:00,9.7,6.1,30.09,ENE,67,0.0,0.0,85,0.00,,,0.00,0.0,meteohub,2013-01-26 07:17:00,
2013-01-26 02:22:00,9.7,6.1,30.09,ENE,67,0.0,0.0,85,0.00,,,0.00,0.0,meteohub,2013-01-26 07:22:00,
2013-01-26 02:27:00,9.7,6.1,30.09,ENE,67,0.0,0.0,85,0.00,,,0.00,0.0,meteohub,2013-01-26 07:27:00,
2013-01-26 02:32:00,9.5,5.9,30.09,ENE,67,0.0,0.0,85,0.00,,,0.00,0.0,meteohub,2013-01-26 07:32:00,
2013-01-26 02:37:00,9.3,5.7,30.09,ENE,67,0.0,0.0,85,0.00,,,0.00,0.0,meteohub,2013-01-26 07:37:00,
2013-01-26 02:42:00,9.1,5.5,30.09,ENE,67,0.0,0.0,85,0.00,,,0.00,0.0,meteohub,2013-01-26 07:42:00,
2013-01-26 02:47:00,9.1,5.5,30.09,ENE,67,0.0,0.0,85,0.00,,,0.00,0.0,meteohub,2013-01-26 07:47:00,
2013-01-26 02:52:00,9.0,5.4,30.09,ENE,67,0.0,0.0,85,0.00,,,0.00,0.0,meteohub,2013-01-26 07:52:00,
2013-01-26 02:57:00,8.8,5.0,30.09,ENE,67,0.0,0.0,84,0.00,,,0.00,0.0,meteohub,2013-01-26 07:57:00,
2013-01-26 03:02:00,8.6,4.8,30.09,ENE,67,0.0,0.0,84,0.00,,,0.00,0.0,meteohub,2013-01-26 08:02:00,
2013-01-26 03:07:00,8.4,4.6,30.09,ENE,67,0.0,0.0,84,0.00,,,0.00,0.0,meteohub,2013-01-26 08:07:00,
2013-01-26 03:12:00,8.2,4.5,30.09,ENE,67,0.0,0.0,84,0.00,,,0.00,0.0,meteohub,2013-01-26 08:12:00,
2013-01-26 03:17:00,8.1,4.3,30.09,ENE,67,0.0,0.0,84,0.00,,,0.00,0.0,meteohub,2013-01-26 08:17:00,
2013-01-26 03:22:00,7.9,4.1,30.09,ENE,67,0.0,0.0,84,0.00,,,0.00,0.0,meteohub,2013-01-26 08:22:00,
2013-01-26 03:27:00,7.5,3.7,30.09,ENE,67,0.0,0.0,84,0.00,,,0.00,0.0,meteohub,2013-01-26 08:27:00,
2013-01-26 03:32:00,7.5,3.7,30.09,ENE,67,0.0,0.0,84,0.00,,,0.00,0.0,meteohub,2013-01-26 08:32:00,
2013-01-26 03:37:00,7.3,3.6,30.09,ENE,67,0.0,0.0,84,0.00,,,0.00,0.0,meteohub,2013-01-26 08:37:00,
2013-01-26 03:42:00,7.2,3.4,30.09,ENE,67,0.0,0.0,84,0.00,,,0.00,0.0,meteohub,2013-01-26 08:42:00,
2013-01-26 03:47:00,7.0,3.2,30.09,ENE,67,0.0,0.0,84,0.00,,,0.00,0.0,meteohub,2013-01-26 08:47:00,
2013-01-26 03:52:00,6.8,3.0,30.10,ENE,67,0.0,0.0,84,0.00,,,0.00,0.0,meteohub,2013-01-26 08:52:00,
2013-01-26 03:57:00,6.6,2.8,30.10,ENE,67,0.0,0.0,84,0.00,,,0.00,0.0,meteohub,2013-01-26 08:57:00,
2013-01-26 04:02:00,6.6,2.8,30.09,ENE,67,0.0,0.0,84,0.00,,,0.00,0.0,meteohub,2013-01-26 09:02:00,
2013-01-26 04:07:00,6.4,2.7,30.10,ENE,67,0.0,0.0,84,0.00,,,0.00,0.0,meteohub,2013-01-26 09:07:00,
2013-01-26 04:12:00,6.3,2.5,30.09,ENE,67,0.0,0.0,84,0.00,,,0.00,0.0,meteohub,2013-01-26 09:12:00,
2013-01-26 04:17:00,6.3,2.5,30.09,ENE,67,0.0,0.0,84,0.00,,,0.00,0.0,meteohub,2013-01-26 09:17:00,
2013-01-26 04:22:00,6.3,2.5,30.10,ENE,67,0.0,0.0,84,0.00,,,0.00,0.0,meteohub,2013-01-26 09:22:00,
2013-01-26 04:27:00,6.1,2.3,30.10,ENE,67,0.0,0.0,84,0.00,,,0.00,0.0,meteohub,2013-01-26 09:27:00,
2013-01-26 04:32:00,6.1,2.3,30.10,ENE,67,0.0,0.0,84,0.00,,,0.00,0.0,meteohub,2013-01-26 09:32:00,
2013-01-26 04:37:00,5.9,2.1,30.11,ENE,67,0.0,0.0,84,0.00,,,0.00,0.0,meteohub,2013-01-26 09:37:00,
2013-01-26 04:42:00,5.9,2.1,30.11,ENE,67,0.0,0.0,84,0.00,,,0.00,0.0,meteohub,2013-01-26 09:42:00,
2013-01-26 04:47:00,5.9,2.1,30.11,ENE,67,0.0,0.0,84,0.00,,,0.00,0.0,meteohub,2013-01-26 09:47:00,
2013-01-26 04:52:00,5.9,2.1,30.11,ENE,67,0.0,0.0,84,0.00,,,0.00,0.0,meteohub,2013-01-26 09:52:00,
2013-01-26 04:57:00,6.1,2.5,30.11,ENE,67,0.0,0.0,85,0.00,,,0.00,0.0,meteohub,2013-01-26 09:57:00,
2013-01-26 05:02:00,6.3,2.7,30.11,ENE,67,0.0,0.0,85,0.00,,,0.00,0.0,meteohub,2013-01-26 10:02:00,
2013-01-26 05:07:00,6.3,2.7,30.11,ENE,67,0.0,0.0,85,0.00,,,0.00,0.0,meteohub,2013-01-26 10:07:00,
2013-01-26 05:12:00,6.6,3.4,30.11,ENE,67,0.0,0.0,86,0.00,,,0.00,0.0,meteohub,2013-01-26 10:12:00,
2013-01-26 05:17:00,6.8,3.6,30.11,ENE,67,0.0,0.0,86,0.00,,,0.00,0.0,meteohub,2013-01-26 10:17:00,
2013-01-26 05:22:00,7.2,3.9,30.12,ENE,67,0.0,1.0,86,0.00,,,0.00,0.0,meteohub,2013-01-26 10:22:00,
2013-01-26 05:28:00,7.3,4.1,30.12,ENE,67,0.0,1.0,86,0.00,,,0.00,0.0,meteohub,2013-01-26 10:28:00,
2013-01-26 05:33:00,7.5,4.3,30.12,ENE,67,0.0,1.0,86,0.00,,,0.00,0.0,meteohub,2013-01-26 10:33:00,
2013-01-26 05:38:00,7.9,4.8,30.12,ENE,67,0.0,1.0,87,0.00,,,0.00,0.0,meteohub,2013-01-26 10:38:00,
2013-01-26 05:44:00,8.1,5.0,30.12,ENE,67,0.0,1.0,87,0.00,,,0.00,0.0,meteohub,2013-01-26 10:44:00,
2013-01-26 05:49:00,8.2,5.2,30.12,NW,307,0.0,1.0,87,0.00,,,0.00,0.0,meteohub,2013-01-26 10:49:00,
2013-01-26 05:54:00,8.6,5.5,30.12,NW,307,0.0,1.0,87,0.00,,,0.00,0.0,meteohub,2013-01-26 10:54:00,
2013-01-26 06:00:00,9.0,5.9,30.12,NW,307,0.0,1.0,87,0.00,,,0.00,0.0,meteohub,2013-01-26 11:00:00,
2013-01-26 06:05:00,9.1,6.1,30.12,NW,306,0.0,1.0,87,0.00,,,0.00,0.0,meteohub,2013-01-26 11:05:00,
2013-01-26 06:10:00,9.5,6.4,30.13,NW,306,0.0,1.0,87,0.00,,,0.00,0.0,meteohub,2013-01-26 11:10:00,
2013-01-26 06:16:00,9.7,6.6,30.13,NW,306,0.0,1.0,87,0.00,,,0.00,0.0,meteohub,2013-01-26 11:16:00,
2013-01-26 06:21:00,10.0,7.2,30.14,NW,306,0.0,1.0,88,0.00,,,0.00,0.0,meteohub,2013-01-26 11:21:00,
2013-01-26 06:26:00,10.2,7.2,30.14,WNW,294,0.0,1.0,87,0.00,,,0.00,0.0,meteohub,2013-01-26 11:26:00,
2013-01-26 06:32:00,10.4,7.3,30.14,West,263,0.0,1.0,87,0.00,,,0.00,0.0,meteohub,2013-01-26 11:32:00,
2013-01-26 06:37:00,10.6,7.5,30.14,West,264,0.0,2.0,87,0.00,,,0.00,0.0,meteohub,2013-01-26 11:37:00,
2013-01-26 06:42:00,10.6,7.5,30.14,West,264,0.0,2.0,87,0.00,,,0.00,0.0,meteohub,2013-01-26 11:42:00,
2013-01-26 06:47:00,10.6,7.5,30.14,West,264,0.0,2.0,87,0.00,,,0.00,0.0,meteohub,2013-01-26 11:47:00,
2013-01-26 06:52:00,10.6,7.5,30.14,West,264,0.0,2.0,87,0.00,,,0.00,0.0,meteohub,2013-01-26 11:52:00,
2013-01-26 06:57:00,10.6,7.5,30.14,West,264,0.0,2.0,87,0.00,,,0.00,0.0,meteohub,2013-01-26 11:57:00,
2013-01-26 07:02:00,10.6,7.5,30.15,West,264,0.0,2.0,87,0.00,,,0.00,0.0,meteohub,2013-01-26 12:02:00,
2013-01-26 07:07:00,10.6,7.5,30.15,West,264,0.0,2.0,87,0.00,,,0.00,0.0,meteohub,2013-01-26 12:07:00,
2013-01-26 07:12:00,10.6,7.5,30.15,West,264,0.0,2.0,87,0.00,,,0.00,0.0,meteohub,2013-01-26 12:12:00,
2013-01-26 07:17:00,10.6,7.5,30.15,North,350,0.0,1.0,87,0.00,,,0.00,0.0,meteohub,2013-01-26 12:17:00,
2013-01-26 07:23:00,10.6,7.5,30.15,WNW,303,0.0,1.0,87,0.00,,,0.00,0.0,meteohub,2013-01-26 12:23:00,
2013-01-26 07:28:00,10.6,7.5,30.16,WNW,303,0.0,1.0,87,0.00,,,0.00,0.0,meteohub,2013-01-26 12:28:00,
2013-01-26 07:34:00,10.4,7.3,30.16,WNW,303,0.0,2.0,87,0.00,,,0.00,5.0,meteohub,2013-01-26 12:34:00,
2013-01-26 07:39:00,10.2,6.8,30.16,NW,307,0.0,2.0,86,0.00,,,0.00,7.0,meteohub,2013-01-26 12:39:00,
2013-01-26 07:44:00,10.2,6.8,30.16,NW,307,0.0,2.0,86,0.00,,,0.00,7.0,meteohub,2013-01-26 12:44:00,
2013-01-26 07:50:00,10.2,6.8,30.16,NW,307,0.0,2.0,86,0.00,,,0.00,7.0,meteohub,2013-01-26 12:50:00,
2013-01-26 07:55:00,10.0,6.6,30.16,NW,307,0.0,1.0,86,0.00,,,0.00,11.0,meteohub,2013-01-26 12:55:00,
2013-01-26 08:00:00,10.0,6.6,30.16,NW,307,0.0,1.0,86,0.00,,,0.00,9.0,meteohub,2013-01-26 13:00:00,
2013-01-26 08:05:00,9.9,6.4,30.16,NW,307,0.0,1.0,86,0.00,,,0.00,21.0,meteohub,2013-01-26 13:05:00,
2013-01-26 08:11:00,9.9,6.4,30.17,NW,307,0.0,1.0,86,0.00,,,0.00,26.0,meteohub,2013-01-26 13:11:00,
2013-01-26 08:16:00,9.9,6.4,30.17,NW,307,0.0,1.0,86,0.00,,,0.00,28.0,meteohub,2013-01-26 13:16:00,
2013-01-26 08:21:00,9.9,6.4,30.17,NW,307,0.0,1.0,86,0.00,,,0.00,49.0,meteohub,2013-01-26 13:21:00,
2013-01-26 08:27:00,9.9,6.4,30.17,NW,306,0.0,1.0,86,0.00,,,0.00,25.0,meteohub,2013-01-26 13:27:00,
2013-01-26 08:32:00,9.9,6.4,30.17,NE,36,1.0,1.0,86,0.00,,,0.00,23.0,meteohub,2013-01-26 13:32:00,
2013-01-26 08:37:00,9.9,6.4,30.17,NE,36,0.0,1.0,86,0.00,,,0.00,18.0,meteohub,2013-01-26 13:37:00,
2013-01-26 08:42:00,9.9,6.4,30.17,NE,36,0.0,2.0,86,0.00,,,0.00,23.0,meteohub,2013-01-26 13:42:00,
2013-01-26 08:47:00,9.9,6.4,30.17,NE,36,0.0,2.0,86,0.00,,,0.00,30.0,meteohub,2013-01-26 13:47:00,
2013-01-26 08:52:00,9.9,6.4,30.18,NE,36,0.0,2.0,86,0.00,,,0.00,33.0,meteohub,2013-01-26 13:52:00,
2013-01-26 08:57:00,10.0,6.6,30.18,West,273,0.0,1.0,86,0.00,,,0.00,21.0,meteohub,2013-01-26 13:57:00,
2013-01-26 09:02:00,10.0,6.6,30.18,West,273,0.0,1.0,86,0.00,,,0.00,28.0,meteohub,2013-01-26 14:02:00,
2013-01-26 09:07:00,10.0,6.4,30.18,West,273,0.0,1.0,85,0.00,,,0.00,25.0,meteohub,2013-01-26 14:07:00,
2013-01-26 09:12:00,10.2,6.6,30.19,West,273,0.0,1.0,85,0.00,,,0.00,97.0,meteohub,2013-01-26 14:12:00,
2013-01-26 09:17:00,10.2,6.6,30.19,West,275,0.0,2.0,85,0.00,,,0.00,53.0,meteohub,2013-01-26 14:17:00,
2013-01-26 09:22:00,10.6,7.0,30.19,West,276,2.0,2.0,85,0.00,,,0.00,58.0,meteohub,2013-01-26 14:22:00,
2013-01-26 09:27:00,10.8,7.2,30.19,WSW,257,3.0,3.0,85,0.00,,,0.00,62.0,meteohub,2013-01-26 14:27:00,
2013-01-26 09:32:00,10.9,7.3,30.19,WSW,257,0.0,4.0,85,0.00,,,0.00,58.0,meteohub,2013-01-26 14:32:00,
2013-01-26 09:37:00,11.1,7.5,30.19,WSW,257,0.0,4.0,85,0.00,,,0.00,47.0,meteohub,2013-01-26 14:37:00,
2013-01-26 09:42:00,11.5,7.9,30.19,NNW,342,0.0,4.0,85,0.00,,,0.00,37.0,meteohub,2013-01-26 14:42:00,
2013-01-26 09:47:00,11.7,8.1,30.19,NNW,342,0.0,4.0,85,0.00,,,0.00,60.0,meteohub,2013-01-26 14:47:00,
2013-01-26 09:52:00,11.8,7.9,30.19,West,262,2.0,4.0,84,0.00,,,0.00,77.0,meteohub,2013-01-26 14:52:00,
2013-01-26 09:57:00,12.2,10.4,30.19,West,261,0.0,4.0,92,0.00,,,0.00,107.0,meteohub,2013-01-26 14:57:00,
2013-01-26 10:02:00,12.6,8.4,30.19,WNW,303,1.0,4.0,83,0.00,,,0.00,51.0,meteohub,2013-01-26 15:02:00,
2013-01-26 10:07:00,12.6,8.1,30.19,WNW,303,0.0,4.0,82,0.00,,,0.00,58.0,meteohub,2013-01-26 15:07:00,
2013-01-26 10:12:00,12.9,8.4,30.20,NNW,329,0.0,4.0,82,0.00,,,0.00,90.0,meteohub,2013-01-26 15:12:00,
2013-01-26 10:17:00,13.5,9.0,30.20,West,269,3.0,3.0,82,0.00,,,0.00,90.0,meteohub,2013-01-26 15:17:00,
2013-01-26 10:23:00,13.8,9.1,30.20,West,271,1.0,3.0,81,0.00,,,0.00,39.0,meteohub,2013-01-26 15:23:00,
2013-01-26 10:28:00,13.8,8.8,30.20,WSW,247,0.0,3.0,80,0.00,,,0.00,39.0,meteohub,2013-01-26 15:28:00,
2013-01-26 10:33:00,13.8,8.8,30.20,East,92,0.0,4.0,80,0.00,,,0.00,204.0,meteohub,2013-01-26 15:33:00,
2013-01-26 10:39:00,14.4,9.0,30.20,SSW,211,0.0,4.0,79,0.00,,,0.00,207.0,meteohub,2013-01-26 15:39:00,
2013-01-26 10:44:00,15.3,9.7,30.19,SSW,211,1.0,3.0,78,0.00,,,0.00,227.0,meteohub,2013-01-26 15:44:00,
2013-01-26 10:49:00,16.0,10.0,30.19,NW,315,0.0,3.0,77,0.00,,,0.00,336.0,meteohub,2013-01-26 15:49:00,
2013-01-26 10:55:00,16.2,9.7,30.19,SSW,206,0.0,3.0,75,0.00,,,0.00,383.0,meteohub,2013-01-26 15:55:00,
2013-01-26 11:00:00,16.5,10.0,30.19,West,270,1.0,4.0,75,0.00,,,0.00,366.0,meteohub,2013-01-26 16:00:00,
2013-01-26 11:05:00,16.5,9.3,30.19,NE,48,1.0,4.0,73,0.00,,,0.00,443.0,meteohub,2013-01-26 16:05:00,
2013-01-26 11:11:00,16.5,9.1,30.19,ENE,61,0.0,4.0,72,0.00,,,0.00,499.0,meteohub,2013-01-26 16:11:00,
2013-01-26 11:16:00,16.7,9.3,30.19,West,275,1.0,4.0,72,0.00,,,0.00,492.0,meteohub,2013-01-26 16:16:00,
2013-01-26 11:21:00,16.9,8.8,30.19,NNW,338,1.0,4.0,70,0.00,,,0.01,485.0,meteohub,2013-01-26 16:21:00,
2013-01-26 11:27:00,17.1,8.6,30.19,WSW,254,3.0,4.0,69,0.00,,,0.01,443.0,meteohub,2013-01-26 16:27:00,
2013-01-26 11:32:00,17.2,8.4,30.19,West,259,5.0,7.0,68,0.01,,,0.01,380.0,meteohub,2013-01-26 16:32:00,
2013-01-26 11:37:00,17.2,8.4,30.19,WNW,287,0.0,7.0,68,0.01,,,0.01,230.0,meteohub,2013-01-26 16:37:00,
2013-01-26 11:42:00,17.2,7.9,30.19,NW,304,3.0,7.0,66,0.01,,,0.01,255.0,meteohub,2013-01-26 16:42:00,
2013-01-26 11:47:00,17.2,7.9,30.18,WSW,253,0.0,8.0,66,0.01,,,0.01,429.0,meteohub,2013-01-26 16:47:00,
2013-01-26 11:52:00,17.4,7.3,30.18,West,276,2.0,8.0,64,0.01,,,0.01,339.0,meteohub,2013-01-26 16:52:00,
2013-01-26 11:57:00,17.4,7.0,30.18,WSW,257,1.0,8.0,63,0.01,,,0.01,288.0,meteohub,2013-01-26 16:57:00,
2013-01-26 12:02:00,17.8,7.3,30.18,WNW,288,2.0,8.0,63,0.01,,,0.01,272.0,meteohub,2013-01-26 17:02:00,
2013-01-26 12:07:00,18.0,7.2,30.17,West,274,0.0,8.0,62,0.01,,,0.01,179.0,meteohub,2013-01-26 17:07:00,
2013-01-26 12:12:00,18.0,6.8,30.17,WSW,242,3.0,6.0,61,0.01,,,0.01,135.0,meteohub,2013-01-26 17:12:00,
2013-01-26 12:17:00,18.1,7.0,30.17,NW,320,7.0,7.0,61,0.01,,,0.01,90.0,meteohub,2013-01-26 17:17:00,
2013-01-26 12:22:00,18.1,6.6,30.17,NNW,342,2.0,13.0,60,0.00,,,0.01,503.0,meteohub,2013-01-26 17:22:00,
2013-01-26 12:27:00,18.1,6.6,30.17,NW,315,3.0,13.0,60,0.00,,,0.01,88.0,meteohub,2013-01-26 17:27:00,
2013-01-26 12:33:00,18.1,6.3,30.17,WNW,294,2.0,13.0,59,0.00,,,0.01,95.0,meteohub,2013-01-26 17:33:00,
2013-01-26 12:38:00,18.3,6.4,30.17,WSW,248,0.0,13.0,59,0.00,,,0.01,98.0,meteohub,2013-01-26 17:38:00,
2013-01-26 12:44:00,18.5,6.6,30.17,West,260,2.0,11.0,59,0.00,,,0.01,54.0,meteohub,2013-01-26 17:44:00,
2013-01-26 12:49:00,18.7,5.9,30.16,West,281,3.0,11.0,57,0.00,,,0.01,202.0,meteohub,2013-01-26 17:49:00,
2013-01-26 12:54:00,18.7,6.4,30.16,NNE,32,0.0,11.0,58,0.00,,,0.01,60.0,meteohub,2013-01-26 17:54:00,
2013-01-26 13:00:00,18.9,6.1,30.16,WNW,293,1.0,11.0,57,0.00,,,0.01,255.0,meteohub,2013-01-26 18:00:00,
2013-01-26 13:05:00,19.0,6.3,30.15,WSW,250,2.0,11.0,57,0.00,,,0.01,417.0,meteohub,2013-01-26 18:05:00,
2013-01-26 13:10:00,19.6,6.8,30.15,West,278,4.0,11.0,57,0.00,,,0.01,234.0,meteohub,2013-01-26 18:10:00,
2013-01-26 13:16:00,19.9,6.8,30.15,West,262,5.0,11.0,56,0.00,,,0.01,390.0,meteohub,2013-01-26 18:16:00,
2013-01-26 13:21:00,20.3,7.2,30.16,NW,304,1.0,12.0,56,0.00,,,0.01,468.0,meteohub,2013-01-26 18:21:00,
2013-01-26 13:26:00,20.7,7.0,30.17,NNW,333,2.0,12.0,55,0.00,,,0.01,520.0,meteohub,2013-01-26 18:26:00,
2013-01-26 13:32:00,20.8,7.2,30.16,NW,305,0.0,13.0,55,0.00,,,0.01,482.0,meteohub,2013-01-26 18:32:00,
2013-01-26 13:37:00,21.0,7.3,30.17,West,273,12.0,13.0,55,0.00,,,0.01,538.0,meteohub,2013-01-26 18:37:00,
2013-01-26 13:42:00,21.4,7.7,30.17,WNW,298,2.0,13.0,55,0.00,,,0.01,533.0,meteohub,2013-01-26 18:42:00,
2013-01-26 13:47:00,21.4,7.3,30.16,North,350,0.0,13.0,54,0.00,,,0.01,534.0,meteohub,2013-01-26 18:47:00,
2013-01-26 13:52:00,21.7,8.1,30.16,WSW,248,4.0,13.0,55,0.00,,,0.01,524.0,meteohub,2013-01-26 18:52:00,
2013-01-26 13:57:00,21.9,7.9,30.16,West,259,3.0,12.0,54,0.00,,,0.01,515.0,meteohub,2013-01-26 18:57:00,
2013-01-26 14:02:00,22.3,8.2,30.17,NW,306,6.0,12.0,54,0.00,,,0.01,501.0,meteohub,2013-01-26 19:02:00,
2013-01-26 14:07:00,22.5,8.2,30.16,West,280,3.0,12.0,54,0.00,,,0.01,492.0,meteohub,2013-01-26 19:07:00,
2013-01-26 14:12:00,22.6,8.4,30.17,NNE,15,1.0,12.0,54,0.00,,,0.01,482.0,meteohub,2013-01-26 19:12:00,
2013-01-26 14:17:00,22.8,9.1,30.17,West,260,3.0,12.0,55,0.00,,,0.01,469.0,meteohub,2013-01-26 19:17:00,
2013-01-26 14:22:00,22.8,8.6,30.17,WNW,292,3.0,7.0,54,0.00,,,0.01,466.0,meteohub,2013-01-26 19:22:00,
2013-01-26 14:27:00,22.8,8.6,30.17,West,268,2.0,12.0,54,0.00,,,0.01,434.0,meteohub,2013-01-26 19:27:00,
2013-01-26 14:32:00,22.6,8.4,30.17,West,259,6.0,12.0,54,0.00,,,0.01,149.0,meteohub,2013-01-26 19:32:00,
2013-01-26 14:37:00,22.5,7.9,30.17,NW,312,4.0,16.0,53,0.00,,,0.01,144.0,meteohub,2013-01-26 19:37:00,
2013-01-26 14:42:00,21.9,7.3,30.17,West,265,0.0,16.0,53,0.00,,,0.01,162.0,meteohub,2013-01-26 19:42:00,
2013-01-26 14:47:00,21.7,8.1,30.18,NNW,329,1.0,13.0,55,0.00,,,0.01,178.0,meteohub,2013-01-26 19:47:00,
2013-01-26 14:52:00,21.6,8.2,30.18,NW,325,0.0,13.0,56,0.00,,,0.01,155.0,meteohub,2013-01-26 19:52:00,
2013-01-26 14:57:00,21.6,7.9,30.18,WNW,291,4.0,12.0,55,0.00,,,0.01,144.0,meteohub,2013-01-26 19:57:00,
2013-01-26 15:02:00,21.4,7.7,30.18,North,0,3.0,12.0,55,0.00,,,0.01,153.0,meteohub,2013-01-26 20:02:00,
2013-01-26 15:07:00,21.0,7.3,30.19,WNW,285,3.0,12.0,55,0.00,,,0.01,135.0,meteohub,2013-01-26 20:07:00,
2013-01-26 15:12:00,21.0,7.7,30.19,SW,231,9.0,15.0,56,0.00,,,0.01,118.0,meteohub,2013-01-26 20:12:00,
2013-01-26 15:17:00,20.8,7.2,30.19,WNW,289,3.0,15.0,55,0.00,,,0.01,104.0,meteohub,2013-01-26 20:17:00,
2013-01-26 15:22:00,20.7,7.0,30.19,West,281,3.0,15.0,55,0.00,,,0.01,86.0,meteohub,2013-01-26 20:22:00,
2013-01-26 15:27:00,20.7,7.5,30.19,ENE,72,2.0,13.0,56,0.00,,,0.01,77.0,meteohub,2013-01-26 20:27:00,
2013-01-26 15:32:00,20.7,7.5,30.19,West,276,1.0,13.0,56,0.00,,,0.01,142.0,meteohub,2013-01-26 20:32:00,
2013-01-26 15:37:00,20.7,7.5,30.19,West,277,2.0,12.0,56,0.00,,,0.01,111.0,meteohub,2013-01-26 20:37:00,
2013-01-26 15:42:00,20.8,7.2,30.19,West,268,5.0,12.0,55,0.00,,,0.01,183.0,meteohub,2013-01-26 20:42:00,
2013-01-26 15:47:00,20.8,7.2,30.20,NW,311,4.0,14.0,55,0.00,,,0.01,113.0,meteohub,2013-01-26 20:47:00,
2013-01-26 15:52:00,20.8,7.2,30.20,WNW,300,4.0,14.0,55,0.00,,,0.01,70.0,meteohub,2013-01-26 20:52:00,
2013-01-26 15:57:00,20.8,7.2,30.19,West,266,3.0,14.0,55,0.00,,,0.01,77.0,meteohub,2013-01-26 20:57:00,
2013-01-26 16:02:00,20.7,7.0,30.20,NW,306,3.0,14.0,55,0.00,,,0.01,62.0,meteohub,2013-01-26 21:02:00,
2013-01-26 16:07:00,20.7,7.0,30.19,WNW,292,6.0,14.0,55,0.00,,,0.01,46.0,meteohub,2013-01-26 21:07:00,
2013-01-26 16:12:00,20.7,7.0,30.19,NW,326,4.0,14.0,55,0.00,,,0.01,40.0,meteohub,2013-01-26 21:12:00,
2013-01-26 16:17:00,20.5,6.8,30.20,WNW,298,4.0,14.0,55,0.00,,,0.01,40.0,meteohub,2013-01-26 21:17:00,
2013-01-26 16:22:00,20.5,6.8,30.20,NW,315,7.0,12.0,55,0.00,,,0.01,39.0,meteohub,2013-01-26 21:22:00,
2013-01-26 16:27:00,20.3,6.8,30.20,NW,310,3.0,12.0,55,0.00,,,0.01,32.0,meteohub,2013-01-26 21:27:00,
2013-01-26 16:32:00,20.1,6.6,30.20,NW,304,4.0,12.0,55,0.00,,,0.01,23.0,meteohub,2013-01-26 21:32:00,
2013-01-26 16:37:00,19.9,6.4,30.21,West,269,5.0,13.0,55,0.00,,,0.01,19.0,meteohub,2013-01-26 21:37:00,
2013-01-26 16:42:00,19.8,6.6,30.21,West,263,4.0,13.0,56,0.00,,,0.01,16.0,meteohub,2013-01-26 21:42:00,
2013-01-26 16:47:00,19.8,6.6,30.22,WNW,293,6.0,18.0,56,0.00,,,0.01,14.0,meteohub,2013-01-26 21:47:00,
2013-01-26 16:52:00,19.4,6.3,30.22,WNW,286,1.0,18.0,56,0.00,,,0.01,9.0,meteohub,2013-01-26 21:52:00,
2013-01-26 16:57:00,19.2,6.1,30.22,WNW,298,5.0,13.0,56,0.00,,,0.01,7.0,meteohub,2013-01-26 21:57:00,
2013-01-26 17:02:00,19.0,6.3,30.22,NW,309,0.0,13.0,57,0.00,,,0.01,5.0,meteohub,2013-01-26 22:02:00,
2013-01-26 17:07:00,19.0,6.3,30.22,NW,308,0.0,13.0,57,0.00,,,0.01,0.0,meteohub,2013-01-26 22:07:00,
2013-01-26 17:12:00,18.9,6.4,30.23,WNW,296,1.0,13.0,58,0.00,,,0.01,0.0,meteohub,2013-01-26 22:12:00,
2013-01-26 17:17:00,18.7,6.8,30.23,NW,306,3.0,13.0,59,0.00,,,0.01,0.0,meteohub,2013-01-26 22:17:00,
2013-01-26 17:23:00,18.3,6.4,30.23,WNW,296,0.0,9.0,59,0.00,,,0.01,0.0,meteohub,2013-01-26 22:23:00,
2013-01-26 17:28:00,18.1,6.3,30.23,West,278,6.0,10.0,59,0.00,,,0.01,0.0,meteohub,2013-01-26 22:28:00,
2013-01-26 17:33:00,18.0,6.1,30.24,North,355,4.0,10.0,59,0.00,,,0.01,0.0,meteohub,2013-01-26 22:33:00,
2013-01-26 17:39:00,18.0,6.4,30.25,WNW,301,2.0,10.0,60,0.00,,,0.01,0.0,meteohub,2013-01-26 22:39:00,
2013-01-26 17:44:00,17.8,6.3,30.25,NW,312,1.0,10.0,60,0.00,,,0.01,0.0,meteohub,2013-01-26 22:44:00,
2013-01-26 17:49:00,17.8,6.3,30.25,NW,315,3.0,11.0,60,0.00,,,0.01,0.0,meteohub,2013-01-26 22:49:00,
2013-01-26 17:55:00,17.4,6.3,30.25,WNW,301,2.0,11.0,61,0.00,,,0.01,0.0,meteohub,2013-01-26 22:55:00,
2013-01-26 18:00:00,17.2,6.1,30.26,NW,319,1.0,11.0,61,0.00,,,0.01,0.0,meteohub,2013-01-26 23:00:00,
2013-01-26 18:05:00,17.1,6.3,30.26,WNW,294,2.0,11.0,62,0.00,,,0.01,0.0,meteohub,2013-01-26 23:05:00,
2013-01-26 18:11:00,17.1,6.3,30.26,WNW,282,2.0,5.0,62,0.00,,,0.01,0.0,meteohub,2013-01-26 23:11:00,
2013-01-26 18:16:00,16.9,6.1,30.26,WNW,295,0.0,5.0,62,0.00,,,0.01,0.0,meteohub,2013-01-26 23:16:00,
2013-01-26 18:21:00,16.7,6.3,30.27,WSW,252,0.0,5.0,63,0.00,,,0.01,0.0,meteohub,2013-01-26 23:21:00,
2013-01-26 18:27:00,16.5,6.1,30.27,WNW,288,1.0,5.0,63,0.00,,,0.01,0.0,meteohub,2013-01-26 23:27:00,
2013-01-26 18:32:00,16.3,6.3,30.27,West,277,1.0,5.0,64,0.00,,,0.01,0.0,meteohub,2013-01-26 23:32:00,
2013-01-26 18:37:00,16.3,6.3,30.28,WNW,301,0.0,5.0,64,0.00,,,0.01,0.0,meteohub,2013-01-26 23:37:00,
2013-01-26 18:42:00,16.2,6.1,30.28,NW,305,0.0,7.0,64,0.00,,,0.01,0.0,meteohub,2013-01-26 23:42:00,
2013-01-26 18:47:00,16.0,5.9,30.28,North,11,0.0,7.0,64,0.00,,,0.01,0.0,meteohub,2013-01-26 23:47:00,
2013-01-26 18:52:00,16.0,5.9,30.28,NW,326,1.0,4.0,64,0.00,,,0.01,0.0,meteohub,2013-01-26 23:52:00,
2013-01-26 18:57:00,15.6,5.9,30.29,West,278,0.0,5.0,65,0.00,,,0.01,0.0,meteohub,2013-01-26 23:57:00,
2013-01-26 19:02:00,15.6,5.9,30.29,WNW,297,0.0,5.0,65,0.00,,,0.01,0.0,meteohub,2013-01-27 00:02:00,
2013-01-26 19:07:00,15.6,5.9,30.28,NW,317,0.0,5.0,65,0.00,,,0.01,0.0,meteohub,2013-01-27 00:07:00,
2013-01-26 19:12:00,15.4,5.7,30.29,North,355,2.0,6.0,65,0.00,,,0.01,0.0,meteohub,2013-01-27 00:12:00,
2013-01-26 19:17:00,15.4,5.7,30.29,North,355,0.0,6.0,65,0.00,,,0.01,0.0,meteohub,2013-01-27 00:17:00,
2013-01-26 19:22:00,15.3,5.5,30.29,WNW,303,0.0,5.0,65,0.00,,,0.01,0.0,meteohub,2013-01-27 00:22:00,
2013-01-26 19:27:00,15.3,5.9,30.29,ENE,63,0.0,10.0,66,0.00,,,0.01,0.0,meteohub,2013-01-27 00:27:00,
2013-01-26 19:32:00,15.3,5.9,30.29,North,355,0.0,10.0,66,0.00,,,0.01,0.0,meteohub,2013-01-27 00:32:00,
2013-01-26 19:37:00,15.3,5.9,30.29,North,5,0.0,9.0,66,0.00,,,0.01,0.0,meteohub,2013-01-27 00:37:00,
2013-01-26 19:42:00,15.1,5.7,30.29,West,271,1.0,9.0,66,0.00,,,0.01,0.0,meteohub,2013-01-27 00:42:00,
2013-01-26 19:47:00,15.1,5.7,30.30,NW,317,1.0,3.0,66,0.00,,,0.01,0.0,meteohub,2013-01-27 00:47:00,
2013-01-26 19:52:00,14.9,5.5,30.30,South,187,0.0,3.0,66,0.00,,,0.01,0.0,meteohub,2013-01-27 00:52:00,
2013-01-26 19:57:00,14.7,5.7,30.30,North,5,0.0,10.0,67,0.00,,,0.01,0.0,meteohub,2013-01-27 00:57:00,
2013-01-26 20:02:00,14.7,5.7,30.29,NW,306,3.0,10.0,67,0.00,,,0.01,0.0,meteohub,2013-01-27 01:02:00,
2013-01-26 20:07:00,14.7,6.1,30.30,West,279,3.0,10.0,68,0.00,,,0.01,0.0,meteohub,2013-01-27 01:07:00,
2013-01-26 20:12:00,14.7,6.1,30.30,NW,311,0.0,10.0,68,0.00,,,0.01,0.0,meteohub,2013-01-27 01:12:00,
2013-01-26 20:17:00,14.7,6.1,30.30,WNW,285,4.0,10.0,68,0.00,,,0.01,0.0,meteohub,2013-01-27 01:17:00,
2013-01-26 20:23:00,14.7,6.1,30.30,West,275,3.0,7.0,68,0.00,,,0.01,0.0,meteohub,2013-01-27 01:23:00,
2013-01-26 20:28:00,14.7,6.4,30.30,WNW,292,0.0,7.0,69,0.00,,,0.01,0.0,meteohub,2013-01-27 01:28:00,
2013-01-26 20:33:00,14.5,6.3,30.30,West,276,1.0,7.0,69,0.00,,,0.01,0.0,meteohub,2013-01-27 01:33:00,
2013-01-26 20:39:00,14.5,6.6,30.31,NW,317,1.0,10.0,70,0.00,,,0.01,0.0,meteohub,2013-01-27 01:39:00,
2013-01-26 20:44:00,14.5,6.6,30.31,West,270,2.0,10.0,70,0.00,,,0.01,0.0,meteohub,2013-01-27 01:44:00,
2013-01-26 20:49:00,14.4,6.6,30.31,West,270,0.0,10.0,71,0.00,,,0.01,0.0,meteohub,2013-01-27 01:49:00,
2013-01-26 20:55:00,14.4,6.6,30.31,NNE,32,0.0,10.0,71,0.00,,,0.01,0.0,meteohub,2013-01-27 01:55:00,
2013-01-26 21:00:00,14.2,6.4,30.31,SSE,157,0.0,7.0,71,0.00,,,0.01,0.0,meteohub,2013-01-27 02:00:00,
2013-01-26 21:05:00,14.2,6.4,30.31,WNW,288,1.0,7.0,71,0.00,,,0.01,0.0,meteohub,2013-01-27 02:05:00,
2013-01-26 21:11:00,14.2,6.4,30.32,WNW,292,2.0,9.0,71,0.00,,,0.01,0.0,meteohub,2013-01-27 02:11:00,
2013-01-26 21:16:00,14.2,6.4,30.31,NW,311,3.0,9.0,71,0.00,,,0.01,0.0,meteohub,2013-01-27 02:16:00,
2013-01-26 21:21:00,14.0,6.3,30.32,NW,313,0.0,10.0,71,0.00,,,0.01,0.0,meteohub,2013-01-27 02:21:00,
2013-01-26 21:27:00,14.0,6.6,30.32,NW,320,0.0,10.0,72,0.00,,,0.01,0.0,meteohub,2013-01-27 02:27:00,
2013-01-26 21:32:00,14.0,6.6,30.32,WNW,283,1.0,10.0,72,0.00,,,0.01,0.0,meteohub,2013-01-27 02:32:00,
2013-01-26 21:37:00,14.0,6.6,30.33,WNW,286,3.0,7.0,72,0.00,,,0.01,0.0,meteohub,2013-01-27 02:37:00,
2013-01-26 21:42:00,13.8,6.4,30.33,West,279,0.0,7.0,72,0.00,,,0.01,0.0,meteohub,2013-01-27 02:42:00,
2013-01-26 21:47:00,13.8,6.4,30.33,NNW,348,1.0,9.0,72,0.00,,,0.01,0.0,meteohub,2013-01-27 02:47:00,
2013-01-26 21:52:00,13.8,6.4,30.33,West,277,3.0,9.0,72,0.00,,,0.01,0.0,meteohub,2013-01-27 02:52:00,
2013-01-26 21:57:00,13.6,6.1,30.33,West,271,2.0,9.0,71,0.00,,,0.01,0.0,meteohub,2013-01-27 02:57:00,
2013-01-26 22:02:00,13.6,6.1,30.33,NW,311,0.0,9.0,71,0.00,,,0.01,0.0,meteohub,2013-01-27 03:02:00,
2013-01-26 22:07:00,13.6,6.1,30.33,SE,130,0.0,9.0,71,0.00,,,0.01,0.0,meteohub,2013-01-27 03:07:00,
2013-01-26 22:12:00,13.5,5.9,30.34,NW,323,0.0,4.0,71,0.00,,,0.01,0.0,meteohub,2013-01-27 03:12:00,
2013-01-26 22:17:00,13.3,5.7,30.34,NNE,32,1.0,4.0,71,0.00,,,0.01,0.0,meteohub,2013-01-27 03:17:00,
2013-01-26 22:22:00,13.3,5.9,30.34,West,267,1.0,7.0,72,0.00,,,0.01,0.0,meteohub,2013-01-27 03:22:00,
2013-01-26 22:27:00,13.3,5.9,30.34,West,271,1.0,7.0,72,0.00,,,0.01,0.0,meteohub,2013-01-27 03:27:00,
2013-01-26 22:32:00,13.1,5.7,30.35,West,272,1.0,7.0,72,0.00,,,0.01,0.0,meteohub,2013-01-27 03:32:00,
2013-01-26 22:37:00,12.9,5.5,30.34,West,272,0.0,5.0,72,0.00,,,0.01,0.0,meteohub,2013-01-27 03:37:00,
2013-01-26 22:42:00,12.9,5.5,30.35,WNW,299,1.0,5.0,72,0.00,,,0.01,0.0,meteohub,2013-01-27 03:42:00,
2013-01-26 22:47:00,12.7,5.4,30.35,WNW,296,1.0,5.0,72,0.00,,,0.01,0.0,meteohub,2013-01-27 03:47:00,
2013-01-26 22:52:00,12.7,5.4,30.35,WNW,296,0.0,6.0,72,0.00,,,0.01,0.0,meteohub,2013-01-27 03:52:00,
2013-01-26 22:57:00,12.7,5.4,30.35,West,279,0.0,4.0,72,0.00,,,0.01,0.0,meteohub,2013-01-27 03:57:00,
2013-01-26 23:02:00,12.6,5.5,30.35,West,281,1.0,4.0,73,0.00,,,0.01,0.0,meteohub,2013-01-27 04:02:00,
2013-01-26 23:07:00,12.6,5.5,30.35,WNW,297,3.0,4.0,73,0.00,,,0.01,0.0,meteohub,2013-01-27 04:07:00,
2013-01-26 23:12:00,12.6,5.5,30.35,NNW,327,1.0,8.0,73,0.00,,,0.01,0.0,meteohub,2013-01-27 04:12:00,
2013-01-26 23:17:00,12.6,5.5,30.35,ENE,69,0.0,8.0,73,0.00,,,0.01,0.0,meteohub,2013-01-27 04:17:00,
2013-01-26 23:22:00,12.6,5.5,30.35,NE,40,0.0,5.0,73,0.00,,,0.01,0.0,meteohub,2013-01-27 04:22:00,
2013-01-26 23:27:00,12.6,5.5,30.35,NNE,12,0.0,5.0,73,0.00,,,0.01,0.0,meteohub,2013-01-27 04:27:00,
2013-01-26 23:32:00,12.4,5.4,30.36,SW,219,0.0,6.0,73,0.00,,,0.01,0.0,meteohub,2013-01-27 04:32:00,
2013-01-26 23:37:00,12.4,5.7,30.36,SW,225,0.0,5.0,74,0.00,,,0.01,0.0,meteohub,2013-01-27 04:37:00,
2013-01-26 23:42:00,12.2,5.2,30.36,SW,225,0.0,5.0,73,0.00,,,0.01,0.0,meteohub,2013-01-27 04:42:00,
2013-01-26 23:47:00,12.0,5.0,30.36,SW,227,0.0,5.0,73,0.00,,,0.01,0.0,meteohub,2013-01-27 04:47:00,
2013-01-26 23:52:00,11.8,5.2,30.36,WNW,290,0.0,3.0,74,0.00,,,0.01,0.0,meteohub,2013-01-27 04:52:00,
2013-01-26 23:57:00,11.8,5.2,30.36,WNW,290,0.0,4.0,74,0.00,,,0.01,0.0,meteohub,2013-01-27 04:57:00,